Rogers, MN (55374)

9:01 AM CST on February 23, 2017 (GMT -0600)
North Ridge | | Change Station
Active Advisory: Winter Storm Watch

Elev 940 ft 45.21 °N, 93.57 °W | Updated 22 seconds ago

Partly Cloudy
Partly Cloudy
30.0 °F
Feels Like 30 °F
N
2.0
Wind Variable Wind from North
Gusts 4.0 mph

Today
High -- | Low -- °F
--% Chance of Precip.
Yesterday
High -- | Low -- °F
Precip. -- in
Pressure 29.95 in
Visibility 10.0 miles
Clouds Few 1700 ft
Windchill 30 °F
Dew Point 23 °F
Humidity 76%
Rainfall 0.00 in
Snow Depth Not available.
7:02 AM 5:53 PM
Waning Crescent, 10% visible
METAR KMIC 231453Z 01008KT 10SM FEW017 00/M05 A2992 RMK AO2 SLP140 T00001050 53008
Pressure 29.95 in
Visibility 10.0 miles
Clouds Few 1700 ft
Windchill 30 °F
Dew Point 23 °F
Humidity 76%
Rainfall 0.00 in
Snow Depth Not available.
7:02 AM 5:53 PM
Waning Crescent, 10% visible
METAR KMIC 231453Z 01008KT 10SM FEW017 00/M05 A2992 RMK AO2 SLP140 T00001050 53008

Get Your Daily Forecast Email!

Thanks for signing up!

Be on the lookout for a verification email in your inbox.

You'll start receiving the daily forecast at 8 AM.

×

10-Day Weather Forecast

Almanac

Astronomy

Feb. 23, 2017 Rise Set
Actual Time
Civil Twilight
Nautical Twilight
Astronomical Twilight
Moon
Length of Visible Light
Length of Day
Tomorrow will be .
, % of the Moon is Illuminated

Today's Extremes

State Highs State Lows

Community

WunderPhotos

Upload Photos

1,962,540 photos uploaded!

WunderBlog® & News

Nearby

Air Quality

  Air Quality AQ Index Pollutant
Not available.

Snow Depth

Station Depth Elevation

Earthquake Activity

City Distance Mag. Time & Date
Minimum magnitude displayed is 2.5.

Coastal Water Temperatures

Place Temperature

Stations

Nearby Weather Stations

Station Location Temp. Windchill Dew Point Humidity Wind Precip. Elev Updated Type
                   

Watches & Warnings

Winter Storm Watch
Issued: 4:27 AM CST Feb. 23, 2017 – National Weather Service

... Winter Storm Watch now in effect from this evening through
late Friday night...

* timing... snow will spread into the area between 10pm and 2am
tonight.

* Snow accumulations... 4 to 8 inches are possible.

* Winds... northeast to northwest 20 to 30 mph with gusts to 40 mph
resulting in considerable blowing and drifting snow.

Precautionary/preparedness actions...

A Winter Storm Watch means there is a potential for significant
snow... sleet... or ice accumulations that may impact travel.
Continue to monitor the latest forecasts.